createdAt,value
2019-03-19T00:01:39.844Z,12.00
2019-03-19T00:04:06.543Z,12.03
2019-03-19T00:06:33.251Z,11.22
2019-03-19T00:08:59.951Z,11.53
2019-03-19T00:11:26.647Z,11.88
2019-03-19T00:13:53.354Z,11.65
2019-03-19T00:16:20.047Z,11.97
2019-03-19T00:18:46.743Z,11.63
2019-03-19T00:21:13.447Z,11.38
2019-03-19T00:23:40.239Z,11.20
2019-03-19T00:26:06.962Z,11.40
2019-03-19T00:28:33.671Z,11.05
2019-03-19T00:31:00.382Z,11.25
2019-03-19T00:33:27.091Z,11.00
2019-03-19T00:35:53.795Z,11.33
2019-03-19T00:38:20.507Z,10.82
2019-03-19T00:40:47.215Z,10.98
2019-03-19T00:43:13.927Z,11.35
2019-03-19T00:45:40.631Z,11.10
2019-03-19T00:48:07.445Z,10.43
2019-03-19T00:50:34.143Z,10.13
2019-03-19T00:53:00.831Z,11.63
2019-03-19T00:55:27.550Z,10.50
2019-03-19T00:57:54.353Z,10.23
2019-03-19T01:00:21.155Z,10.03
2019-03-19T01:02:47.952Z,9.95
2019-03-19T01:05:14.754Z,9.60
2019-03-19T01:07:41.564Z,10.10
2019-03-19T01:10:10.392Z,10.28
2019-03-19T01:12:37.300Z,9.40
2019-03-19T01:15:05.756Z,9.78
2019-03-19T01:17:32.474Z,10.20
2019-03-19T01:19:59.173Z,10.05
2019-03-19T01:22:25.867Z,9.95
2019-03-19T01:24:52.572Z,9.88
2019-03-19T01:27:19.359Z,9.30
2019-03-19T01:29:46.055Z,9.15
2019-03-19T01:32:12.756Z,9.63
2019-03-19T01:34:39.467Z,9.45
2019-03-19T01:37:06.167Z,10.08
2019-03-19T01:39:32.873Z,9.63
2019-03-19T01:41:59.623Z,10.10
2019-03-19T01:44:26.387Z,10.15
2019-03-19T01:46:53.087Z,10.20
2019-03-19T01:49:19.798Z,9.95
2019-03-19T01:51:46.498Z,10.00
2019-03-19T01:54:13.312Z,10.32
2019-03-19T01:56:40.043Z,9.48
2019-03-19T01:59:06.727Z,9.00
2019-03-19T02:01:33.420Z,9.25
2019-03-19T02:04:00.123Z,8.75
2019-03-19T02:06:26.824Z,8.68
2019-03-19T02:08:53.550Z,9.38
2019-03-19T02:11:20.259Z,9.03
2019-03-19T02:13:46.979Z,9.90
2019-03-19T02:16:13.684Z,9.55
2019-03-19T02:18:40.403Z,9.30
2019-03-19T02:21:07.109Z,8.45
2019-03-19T02:23:33.796Z,8.80
2019-03-19T02:26:00.507Z,9.33
2019-03-19T02:28:27.223Z,9.05
2019-03-19T02:30:53.928Z,9.13
2019-03-19T02:33:20.649Z,9.80
2019-03-19T02:35:47.534Z,8.60
2019-03-19T02:38:14.232Z,8.90
2019-03-19T02:40:40.935Z,8.90
2019-03-19T02:43:07.650Z,8.48
2019-03-19T02:45:34.448Z,8.65
2019-03-19T02:48:01.157Z,8.58
2019-03-19T02:50:27.877Z,9.35
2019-03-19T02:52:54.580Z,9.23
2019-03-19T02:55:21.285Z,8.73
2019-03-19T02:57:47.984Z,9.50
2019-03-19T03:00:14.804Z,9.05
2019-03-19T03:02:41.603Z,9.55
2019-03-19T03:05:09.816Z,9.50
2019-03-19T03:07:36.625Z,9.78
2019-03-19T03:10:04.002Z,9.73
2019-03-19T03:12:30.834Z,9.70
2019-03-19T03:14:57.607Z,9.50
2019-03-19T03:17:24.512Z,10.13
2019-03-19T03:19:51.228Z,8.88
2019-03-19T03:22:17.961Z,9.50
2019-03-19T03:24:44.672Z,9.65
2019-03-19T03:27:11.476Z,11.25
2019-03-19T03:29:38.184Z,10.15
2019-03-19T03:32:04.888Z,10.68
2019-03-19T03:34:31.597Z,9.95
2019-03-19T03:36:58.292Z,9.80
2019-03-19T03:39:24.997Z,9.68
2019-03-19T03:41:51.704Z,9.95
2019-03-19T03:44:18.611Z,9.60
2019-03-19T03:46:45.430Z,10.32
2019-03-19T03:49:12.127Z,10.30
2019-03-19T03:51:38.866Z,9.90
2019-03-19T03:54:05.635Z,11.38
2019-03-19T03:56:32.339Z,10.32
2019-03-19T03:59:00.798Z,10.35
2019-03-19T04:01:27.748Z,10.48
2019-03-19T04:03:54.559Z,9.65
2019-03-19T04:06:21.655Z,10.30
2019-03-19T04:08:48.364Z,10.13
2019-03-19T04:11:15.086Z,11.00
2019-03-19T04:13:41.777Z,10.25
2019-03-19T04:16:08.487Z,10.28
2019-03-19T04:18:35.202Z,11.35
2019-03-19T04:21:01.944Z,9.70
2019-03-19T04:23:28.807Z,10.10
2019-03-19T04:25:55.521Z,9.85
2019-03-19T04:28:22.323Z,9.95
2019-03-19T04:30:49.136Z,10.32
2019-03-19T04:33:15.852Z,9.78
2019-03-19T04:35:42.599Z,10.72
2019-03-19T04:38:09.355Z,11.90
2019-03-19T04:40:36.071Z,11.25
2019-03-19T04:43:02.975Z,10.72
2019-03-19T04:45:29.775Z,10.43
2019-03-19T04:47:56.579Z,10.63
2019-03-19T04:50:23.279Z,11.12
2019-03-19T04:52:49.987Z,11.22
2019-03-19T04:55:17.105Z,11.18
2019-03-19T04:57:44.112Z,11.30
2019-03-19T05:00:10.920Z,9.98
2019-03-19T05:02:37.725Z,10.65
2019-03-19T05:05:05.015Z,11.53
2019-03-19T05:07:31.699Z,10.72
2019-03-19T05:09:58.415Z,10.00
2019-03-19T05:12:25.125Z,10.53
2019-03-19T05:14:51.857Z,10.13
2019-03-19T05:17:18.580Z,10.80
2019-03-19T05:19:45.280Z,11.88
2019-03-19T05:22:11.979Z,11.43
2019-03-19T05:24:38.676Z,10.95
2019-03-19T05:27:05.399Z,11.28
2019-03-19T05:29:32.095Z,12.00
2019-03-19T05:31:58.802Z,10.80
2019-03-19T05:34:25.495Z,12.13
2019-03-19T05:36:52.203Z,13.62
2019-03-19T05:39:19.159Z,12.68
2019-03-19T05:41:45.867Z,13.22
2019-03-19T05:44:12.568Z,13.20
2019-03-19T05:46:39.276Z,12.03
2019-03-19T05:49:05.983Z,12.40
2019-03-19T05:51:32.693Z,12.45
2019-03-19T05:53:59.380Z,11.85
2019-03-19T05:56:26.079Z,11.97
2019-03-19T05:58:52.792Z,12.10
2019-03-19T06:01:19.526Z,13.35
2019-03-19T06:03:46.228Z,11.78
2019-03-19T06:06:12.929Z,13.10
2019-03-19T06:08:39.643Z,12.63
2019-03-19T06:11:06.339Z,13.25
2019-03-19T06:13:33.051Z,12.80
2019-03-19T06:16:00.009Z,12.58
2019-03-19T06:18:34.530Z,12.68
2019-03-19T06:20:55.373Z,11.60
2019-03-19T06:23:22.067Z,10.72
2019-03-19T06:25:48.773Z,11.90
2019-03-19T06:28:15.482Z,11.65
2019-03-19T06:30:42.171Z,12.23
2019-03-19T06:33:08.897Z,12.70
2019-03-19T06:35:35.595Z,12.33
2019-03-19T06:38:02.311Z,11.83
2019-03-19T06:40:29.258Z,12.25
2019-03-19T06:42:55.984Z,12.13
2019-03-19T06:45:23.198Z,12.63
2019-03-19T06:47:50.499Z,12.65
2019-03-19T06:50:17.451Z,13.70
2019-03-19T06:52:44.165Z,12.82
2019-03-19T06:55:11.063Z,13.13
2019-03-19T06:57:39.440Z,13.48
2019-03-19T07:00:09.693Z,13.53
2019-03-19T07:02:36.395Z,12.75
2019-03-19T07:05:03.967Z,13.55
2019-03-19T07:07:30.667Z,13.85
2019-03-19T07:09:57.380Z,12.98
2019-03-19T07:12:24.083Z,13.58
2019-03-19T07:14:50.804Z,13.53
2019-03-19T07:17:17.499Z,14.75
2019-03-19T07:19:44.198Z,14.75
2019-03-19T07:22:10.903Z,13.35
2019-03-19T07:24:37.618Z,14.25
2019-03-19T07:27:04.322Z,15.13
2019-03-19T07:29:31.048Z,14.07
2019-03-19T07:31:57.745Z,14.60
2019-03-19T07:34:24.443Z,14.33
2019-03-19T07:36:51.167Z,15.05
2019-03-19T07:39:17.883Z,14.85
2019-03-19T07:41:44.591Z,14.55
2019-03-19T07:44:11.319Z,14.65
2019-03-19T07:46:38.038Z,14.38
2019-03-19T07:49:04.840Z,14.25
2019-03-19T07:51:31.563Z,14.50
2019-03-19T07:53:58.285Z,13.43
2019-03-19T07:56:25.001Z,13.48
2019-03-19T07:58:51.723Z,13.18
2019-03-19T08:01:18.445Z,12.55
2019-03-19T08:03:45.611Z,12.40
2019-03-19T08:06:12.315Z,11.60
2019-03-19T08:08:39.038Z,12.33
2019-03-19T08:11:05.742Z,12.00
2019-03-19T08:13:32.464Z,12.43
2019-03-19T08:15:59.186Z,11.27
2019-03-19T08:18:26.045Z,11.77
2019-03-19T08:20:52.773Z,12.27
2019-03-19T08:23:19.480Z,10.53
2019-03-19T08:25:46.184Z,11.10
2019-03-19T08:28:12.875Z,11.10
2019-03-19T08:30:39.599Z,11.13
2019-03-19T08:33:06.299Z,11.20
2019-03-19T08:35:33.123Z,10.00
2019-03-19T08:37:59.827Z,10.70
2019-03-19T08:40:26.543Z,10.80
2019-03-19T08:42:53.379Z,10.80
2019-03-19T08:45:20.095Z,10.10
2019-03-19T08:47:46.800Z,10.60
2019-03-19T08:50:14.639Z,10.33
2019-03-19T08:52:41.443Z,10.67
2019-03-19T08:55:08.355Z,10.53
2019-03-19T08:57:35.067Z,10.03
2019-03-19T09:00:01.838Z,9.77
2019-03-19T09:02:28.540Z,9.60
2019-03-19T09:04:55.259Z,9.87
2019-03-19T09:07:22.500Z,9.60
2019-03-19T09:10:02.399Z,9.07
2019-03-19T09:12:29.119Z,10.07
2019-03-19T09:14:55.835Z,9.33
2019-03-19T09:17:22.551Z,9.07
2019-03-19T09:19:49.266Z,9.20
2019-03-19T09:22:15.960Z,9.93
2019-03-19T09:24:42.887Z,9.13
2019-03-19T09:27:09.599Z,9.53
2019-03-19T09:29:36.327Z,8.80
2019-03-19T09:32:03.235Z,9.03
2019-03-19T09:34:29.947Z,8.80
2019-03-19T09:36:57.645Z,8.00
2019-03-19T09:39:24.969Z,8.10
2019-03-19T09:41:51.675Z,7.80
2019-03-19T09:44:18.671Z,7.27
2019-03-19T09:46:45.483Z,7.47
2019-03-19T09:49:12.188Z,7.57
2019-03-19T09:51:38.891Z,7.67
2019-03-19T09:54:05.712Z,7.73
2019-03-19T09:56:32.415Z,8.07
2019-03-19T09:58:59.128Z,8.37
2019-03-19T10:01:25.929Z,7.80
2019-03-19T10:03:52.634Z,7.87
2019-03-19T10:06:19.453Z,7.27
2019-03-19T10:08:46.155Z,8.13
2019-03-19T10:11:13.330Z,8.00
2019-03-19T10:13:40.044Z,8.77
2019-03-19T10:16:07.749Z,8.13
2019-03-19T10:18:34.787Z,8.20
2019-03-19T10:21:01.598Z,8.00
2019-03-19T10:23:28.582Z,7.70
2019-03-19T10:25:55.275Z,8.17
2019-03-19T10:28:21.995Z,9.07
2019-03-19T10:30:48.726Z,8.07
2019-03-19T10:33:16.073Z,7.87
2019-03-19T10:35:43.019Z,8.77
2019-03-19T10:38:09.744Z,7.27
2019-03-19T10:40:36.876Z,7.30
2019-03-19T10:43:03.684Z,7.47
2019-03-19T10:45:30.399Z,7.53
2019-03-19T10:47:57.123Z,7.43
2019-03-19T10:50:23.951Z,7.93
2019-03-19T10:52:50.653Z,8.97
2019-03-19T10:55:17.612Z,8.57
2019-03-19T10:57:45.388Z,8.23
2019-03-19T11:00:16.148Z,8.00
2019-03-19T11:02:42.959Z,7.73
2019-03-19T11:05:10.566Z,7.23
2019-03-19T11:07:37.287Z,8.37
2019-03-19T11:10:04.256Z,6.50
2019-03-19T11:12:30.968Z,7.30
2019-03-19T11:14:57.675Z,6.13
2019-03-19T11:17:24.379Z,7.23
2019-03-19T11:19:51.210Z,6.93
2019-03-19T11:22:17.908Z,7.20
2019-03-19T11:24:44.619Z,5.90
2019-03-19T11:27:11.593Z,5.70
2019-03-19T11:29:38.284Z,6.20
2019-03-19T11:32:05.092Z,6.37
2019-03-19T11:34:31.787Z,5.73
2019-03-19T11:36:58.496Z,4.97
2019-03-19T11:39:25.212Z,5.17
2019-03-19T11:41:51.920Z,4.77
2019-03-19T11:44:18.624Z,4.77
2019-03-19T11:46:45.555Z,6.17
2019-03-19T11:49:12.267Z,6.10
2019-03-19T11:51:39.084Z,5.73
2019-03-19T11:54:05.795Z,5.07
2019-03-19T11:56:32.499Z,5.63
2019-03-19T11:58:59.202Z,5.70
2019-03-19T12:01:25.907Z,5.70
2019-03-19T12:03:52.632Z,5.53
2019-03-19T12:06:19.323Z,5.20
2019-03-19T12:08:46.031Z,6.00
2019-03-19T12:11:12.747Z,5.60
2019-03-19T12:13:39.450Z,5.30
2019-03-19T12:16:06.266Z,5.87
2019-03-19T12:18:33.061Z,5.50
2019-03-19T12:20:59.767Z,5.43
2019-03-19T12:23:26.567Z,5.40
2019-03-19T12:25:53.380Z,5.50
2019-03-19T12:28:20.088Z,5.20
2019-03-19T12:30:46.799Z,5.87
2019-03-19T12:33:13.504Z,6.70
2019-03-19T12:35:40.307Z,5.77
2019-03-19T12:38:07.109Z,5.83
2019-03-19T12:40:37.096Z,5.40
2019-03-19T12:43:03.151Z,4.93
2019-03-19T12:45:30.029Z,5.40
2019-03-19T12:47:56.743Z,5.40
2019-03-19T12:50:23.656Z,5.20
2019-03-19T12:52:50.368Z,4.10
2019-03-19T12:55:17.179Z,3.90
2019-03-19T12:57:43.887Z,3.87
2019-03-19T13:00:15.756Z,3.97
2019-03-19T13:02:42.583Z,4.00
2019-03-19T13:05:09.903Z,3.90
2019-03-19T13:07:36.855Z,3.90
2019-03-19T13:10:04.679Z,4.00
2019-03-19T13:12:31.399Z,4.37
2019-03-19T13:14:58.119Z,4.47
2019-03-19T13:17:24.932Z,4.37
2019-03-19T13:19:51.651Z,4.20
2019-03-19T13:22:18.355Z,4.83
2019-03-19T13:24:45.059Z,4.03
2019-03-19T13:27:11.773Z,4.13
2019-03-19T13:29:38.472Z,4.03
2019-03-19T13:32:05.176Z,4.20
2019-03-19T13:34:31.879Z,4.47
2019-03-19T13:36:58.686Z,3.93
2019-03-19T13:39:25.524Z,4.40
2019-03-19T13:41:52.228Z,3.70
2019-03-19T13:44:18.927Z,3.93
2019-03-19T13:46:45.632Z,3.90
2019-03-19T13:49:12.363Z,5.27
2019-03-19T13:51:39.055Z,3.40
2019-03-19T13:54:05.763Z,3.73
2019-03-19T13:56:32.493Z,4.27
2019-03-19T13:58:59.305Z,4.40
2019-03-19T14:01:26.018Z,4.40
2019-03-19T14:03:52.711Z,4.30
2019-03-19T14:06:19.419Z,4.23
2019-03-19T14:08:46.124Z,5.23
2019-03-19T14:11:12.843Z,4.50
2019-03-19T14:13:39.543Z,4.60
2019-03-19T14:16:06.356Z,4.40
2019-03-19T14:18:33.079Z,5.03
2019-03-19T14:20:59.888Z,5.10
2019-03-19T14:23:26.824Z,4.70
2019-03-19T14:25:53.528Z,4.70
2019-03-19T14:28:20.239Z,4.80
2019-03-19T14:30:46.944Z,5.03
2019-03-19T14:33:13.913Z,5.20
2019-03-19T14:35:40.631Z,4.43
2019-03-19T14:38:07.327Z,4.93
2019-03-19T14:40:34.410Z,4.83
2019-03-19T14:43:01.587Z,5.10
2019-03-19T14:45:28.438Z,5.40
2019-03-19T14:47:55.198Z,5.83
2019-03-19T14:50:22.132Z,6.10
2019-03-19T14:52:49.259Z,5.53
2019-03-19T14:55:16.323Z,5.63
2019-03-19T14:57:43.360Z,5.77
2019-03-19T15:00:11.760Z,5.80
2019-03-19T15:02:38.465Z,4.90
2019-03-19T15:05:05.716Z,5.20
2019-03-19T15:07:32.967Z,5.40
2019-03-19T15:09:59.691Z,5.37
2019-03-19T15:12:26.402Z,5.53
2019-03-19T15:14:53.112Z,5.50
2019-03-19T15:17:19.815Z,5.70
2019-03-19T15:19:46.523Z,5.77
2019-03-19T15:22:13.239Z,5.83
2019-03-19T15:24:39.932Z,4.97
2019-03-19T15:27:06.647Z,5.50
2019-03-19T15:29:33.356Z,4.90
2019-03-19T15:32:00.067Z,5.07
2019-03-19T15:34:26.773Z,5.90
2019-03-19T15:36:53.487Z,5.20
2019-03-19T15:39:20.205Z,4.93
2019-03-19T15:41:46.907Z,5.10
2019-03-19T15:44:13.631Z,4.73
2019-03-19T15:46:40.616Z,4.83
2019-03-19T15:49:07.319Z,4.63
2019-03-19T15:51:34.023Z,4.33
2019-03-19T15:54:00.737Z,4.50
2019-03-19T15:56:27.464Z,4.77
2019-03-19T15:58:54.171Z,4.40
2019-03-19T16:01:20.983Z,4.20
2019-03-19T16:03:48.103Z,4.50
2019-03-19T16:06:14.827Z,4.30
2019-03-19T16:08:41.547Z,4.40
2019-03-19T16:11:08.275Z,4.63
2019-03-19T16:13:35.062Z,4.60
2019-03-19T16:16:02.047Z,4.03
2019-03-19T16:18:28.772Z,4.50
2019-03-19T16:20:55.458Z,4.33
2019-03-19T16:23:22.193Z,4.40
2019-03-19T16:25:48.911Z,5.00
2019-03-19T16:28:15.616Z,4.97
2019-03-19T16:30:42.315Z,4.50
2019-03-19T16:33:09.023Z,4.27
2019-03-19T16:35:35.745Z,4.50
2019-03-19T16:38:02.443Z,4.67
2019-03-19T16:40:29.157Z,4.80
2019-03-19T16:42:55.856Z,4.60
2019-03-19T16:45:22.562Z,4.03
2019-03-19T16:47:49.270Z,4.70
2019-03-19T16:50:16.491Z,4.57
2019-03-19T16:52:43.299Z,4.67
2019-03-19T16:55:10.550Z,4.90
2019-03-19T16:57:37.264Z,5.17
2019-03-19T17:00:05.847Z,5.67
2019-03-19T17:02:32.547Z,4.80
2019-03-19T17:04:59.255Z,4.00
2019-03-19T17:07:26.059Z,3.97
2019-03-19T17:09:52.769Z,4.60
2019-03-19T17:12:19.480Z,4.40
2019-03-19T17:14:46.285Z,5.10
2019-03-19T17:17:12.996Z,4.50
2019-03-19T17:19:39.715Z,5.30
2019-03-19T17:22:06.896Z,5.17
2019-03-19T17:24:33.639Z,5.10
2019-03-19T17:27:00.423Z,4.60
2019-03-19T17:29:27.143Z,5.00
2019-03-19T17:31:53.848Z,4.70
2019-03-19T17:34:20.581Z,5.50
2019-03-19T17:36:47.791Z,5.17
2019-03-19T17:39:14.503Z,5.57
2019-03-19T17:41:41.271Z,5.10
2019-03-19T17:44:07.964Z,5.20
2019-03-19T17:46:34.667Z,5.20
2019-03-19T17:49:10.285Z,5.13
2019-03-19T17:51:37.010Z,5.00
2019-03-19T17:54:03.931Z,5.00
2019-03-19T17:56:30.659Z,5.03
2019-03-19T17:58:57.400Z,5.23
2019-03-19T18:01:24.507Z,5.47
2019-03-19T18:03:51.237Z,5.10
2019-03-19T18:06:18.192Z,5.40
2019-03-19T18:08:45.016Z,5.03
2019-03-19T18:11:11.737Z,5.43
2019-03-19T18:13:38.439Z,5.60
2019-03-19T18:16:05.159Z,5.83
2019-03-19T18:18:31.911Z,5.30
2019-03-19T18:20:58.632Z,5.47
2019-03-19T18:23:25.341Z,5.70
2019-03-19T18:25:52.073Z,6.30
2019-03-19T18:28:18.910Z,5.90
2019-03-19T18:30:45.909Z,5.93
2019-03-19T18:33:12.608Z,6.17
2019-03-19T18:35:39.321Z,6.23
2019-03-19T18:38:06.161Z,6.23
2019-03-19T18:40:33.111Z,6.10
2019-03-19T18:42:59.819Z,5.90
2019-03-19T18:45:26.531Z,5.60
2019-03-19T18:47:53.242Z,6.57
2019-03-19T18:50:20.587Z,6.00
2019-03-19T18:52:47.599Z,6.33
2019-03-19T18:55:14.518Z,6.30
2019-03-19T18:57:41.763Z,7.00
2019-03-19T19:00:11.375Z,6.43
2019-03-19T19:02:48.804Z,6.57
2019-03-19T19:05:07.550Z,6.60
2019-03-19T19:07:34.310Z,6.50
2019-03-19T19:10:01.020Z,6.40
2019-03-19T19:12:27.739Z,6.60
2019-03-19T19:14:54.460Z,6.30
2019-03-19T19:17:21.247Z,6.90
2019-03-19T19:19:47.954Z,6.53
2019-03-19T19:22:14.909Z,7.13
2019-03-19T19:24:41.915Z,6.90
2019-03-19T19:27:08.635Z,7.20
2019-03-19T19:29:35.836Z,7.40
2019-03-19T19:32:02.555Z,8.50
2019-03-19T19:34:29.259Z,7.50
2019-03-19T19:36:55.978Z,7.13
2019-03-19T19:39:22.670Z,7.27
2019-03-19T19:41:49.383Z,7.60
2019-03-19T19:44:16.087Z,7.53
2019-03-19T19:46:42.789Z,8.33
2019-03-19T19:49:09.487Z,7.47
2019-03-19T19:51:36.459Z,7.67
2019-03-19T19:54:03.375Z,7.43
2019-03-19T19:56:30.104Z,7.47
2019-03-19T19:58:56.807Z,7.07
2019-03-19T20:01:23.515Z,7.80
2019-03-19T20:03:50.220Z,8.40
2019-03-19T20:06:16.946Z,9.03
2019-03-19T20:08:43.657Z,9.83
2019-03-19T20:11:10.360Z,9.17
2019-03-19T20:13:37.091Z,8.50
2019-03-19T20:16:04.212Z,8.10
2019-03-19T20:18:30.923Z,8.87
2019-03-19T20:20:57.739Z,11.87
2019-03-19T20:23:24.492Z,10.57
2019-03-19T20:25:51.297Z,9.33
2019-03-19T20:28:18.251Z,11.10
2019-03-19T20:30:45.065Z,10.33
2019-03-19T20:33:11.779Z,10.00
2019-03-19T20:35:38.584Z,11.97
2019-03-19T20:38:05.306Z,10.40
2019-03-19T20:40:32.007Z,10.80
2019-03-19T20:42:58.734Z,10.70
2019-03-19T20:45:25.885Z,9.20
2019-03-19T20:47:52.701Z,9.63
2019-03-19T20:50:24.127Z,10.37
2019-03-19T20:52:50.943Z,10.23
2019-03-19T20:55:17.663Z,10.03
2019-03-19T20:57:44.480Z,10.23
2019-03-19T21:00:13.235Z,10.27
2019-03-19T21:02:40.048Z,10.47
2019-03-19T21:05:06.965Z,11.10
2019-03-19T21:07:33.683Z,12.27
2019-03-19T21:10:00.383Z,11.40
2019-03-19T21:12:27.335Z,13.83
2019-03-19T21:14:54.051Z,12.57
2019-03-19T21:17:20.755Z,12.73
2019-03-19T21:19:47.478Z,12.90
2019-03-19T21:22:14.283Z,13.10
2019-03-19T21:24:41.055Z,14.30
2019-03-19T21:27:07.811Z,13.73
2019-03-19T21:29:34.537Z,13.37
2019-03-19T21:32:01.240Z,15.37
2019-03-19T21:34:27.948Z,14.30
2019-03-19T21:36:54.643Z,14.17
2019-03-19T21:39:21.363Z,13.60
2019-03-19T21:41:48.099Z,13.27
2019-03-19T21:44:14.801Z,14.07
2019-03-19T21:46:41.499Z,13.43
2019-03-19T21:49:08.207Z,13.80
2019-03-19T21:51:34.919Z,14.70
2019-03-19T21:54:01.627Z,13.47
2019-03-19T21:56:28.343Z,13.03
2019-03-19T21:58:55.053Z,13.83
2019-03-19T22:01:22.127Z,14.37
2019-03-19T22:03:48.931Z,14.03
2019-03-19T22:06:16.519Z,14.17
2019-03-19T22:08:43.472Z,13.77
2019-03-19T22:11:10.179Z,13.40
2019-03-19T22:13:36.903Z,14.63
2019-03-19T22:16:03.711Z,13.97
2019-03-19T22:18:30.412Z,13.90
2019-03-19T22:20:57.125Z,14.33
2019-03-19T22:23:23.860Z,13.60
2019-03-19T22:25:50.567Z,13.17
2019-03-19T22:28:17.283Z,13.77
2019-03-19T22:30:43.980Z,13.70
2019-03-19T22:33:10.783Z,14.23
2019-03-19T22:35:37.480Z,13.17
2019-03-19T22:38:04.307Z,12.57
2019-03-19T22:40:31.007Z,13.50
2019-03-19T22:42:57.712Z,13.27
2019-03-19T22:45:24.419Z,14.10
2019-03-19T22:47:51.131Z,17.40
2019-03-19T22:50:17.946Z,13.40
2019-03-19T22:52:44.848Z,13.40
2019-03-19T22:55:11.775Z,13.37
2019-03-19T22:57:38.907Z,14.00
2019-03-19T23:00:08.692Z,13.20
2019-03-19T23:02:35.405Z,14.00
2019-03-19T23:05:02.247Z,14.20
2019-03-19T23:07:28.967Z,13.43
2019-03-19T23:09:55.664Z,13.00
2019-03-19T23:12:22.479Z,13.30
2019-03-19T23:14:49.201Z,13.37
2019-03-19T23:17:16.006Z,13.13
2019-03-19T23:19:42.715Z,13.40
2019-03-19T23:22:09.527Z,13.23
2019-03-19T23:24:36.251Z,12.73
2019-03-19T23:27:03.151Z,13.03
2019-03-19T23:29:29.859Z,12.87
2019-03-19T23:31:56.824Z,13.37
2019-03-19T23:34:23.931Z,13.60
2019-03-19T23:36:50.643Z,14.03
2019-03-19T23:39:17.355Z,13.57
2019-03-19T23:41:44.052Z,13.90
2019-03-19T23:44:10.756Z,13.13
2019-03-19T23:46:37.799Z,13.40
2019-03-19T23:49:04.523Z,13.00
2019-03-19T23:51:31.220Z,13.60
2019-03-19T23:53:57.934Z,12.60
2019-03-19T23:56:24.631Z,12.80
2019-03-19T23:58:51.341Z,13.83
